Time;durP1;ratioP1;P1;durP2;ratioP2;P2;SDS_P1;SDS_P2;PMS_P1;PMS_P2;Temp;Humidity;BMP_temperature;BMP_pressure;BME280_temperature;BME280_humidity;BME280_pressure;Samples;Min_cycle;Max_cycle;Signal;HPM_P1;HPM_P2
2022/11/19 00:01:18;;;;;;;4.97;4.03;;;;;;;;;;4989769;28;20041;-72
2022/11/19 00:03:45;;;;;;;7.68;5.38;;;;;;;;;;4987577;28;20535;-72
2022/11/19 00:06:18;;;;;;;8.40;6.95;;;;;;;;;;4989268;28;20037;-72
2022/11/19 00:08:46;;;;;;;5.70;4.60;;;;;;;;;;4984672;28;20031;-72
2022/11/19 00:11:13;;;;;;;7.28;5.78;;;;;;;;;;4989324;28;20030;-72
2022/11/19 00:13:42;;;;;;;5.15;4.05;;;;;;;;;;4989535;28;20026;-72
2022/11/19 00:16:13;;;;;;;5.88;4.75;;;;;;;;;;4987585;28;20026;-72
2022/11/19 00:18:41;;;;;;;12.13;6.75;;;;;;;;;;4989249;28;20045;-71
2022/11/19 00:21:11;;;;;;;11.65;5.10;;;;;;;;;;4987189;28;20492;-72
2022/11/19 00:23:37;;;;;;;5.35;4.50;;;;;;;;;;4991551;28;20041;-71
2022/11/19 00:26:10;;;;;;;9.15;4.38;;;;;;;;;;5007058;28;20027;-71
2022/11/19 00:28:36;;;;;;;7.05;5.65;;;;;;;;;;4992186;28;20046;-72
2022/11/19 00:31:03;;;;;;;9.50;5.90;;;;;;;;;;4991284;28;20030;-71
2022/11/19 00:33:35;;;;;;;8.52;4.75;;;;;;;;;;4993271;28;20030;-71
2022/11/19 00:36:05;;;;;;;9.45;4.55;;;;;;;;;;4993191;28;20022;-71
2022/11/19 00:38:34;;;;;;;5.53;4.97;;;;;;;;;;4993662;28;20400;-72
2022/11/19 00:41:00;;;;;;;5.97;5.00;;;;;;;;;;5007407;28;20037;-71
2022/11/19 00:46:12;;;;;;;8.65;5.53;;;;;;;;;;4985579;28;20499;-71
2022/11/19 00:48:38;;;;;;;7.55;6.20;;;;;;;;;;4993503;28;20030;-72
2022/11/19 00:51:05;;;;;;;12.30;5.18;;;;;;;;;;4991869;28;20037;-71
2022/11/19 00:53:36;;;;;;;6.75;5.70;;;;;;;;;;4990303;28;20469;-71
2022/11/19 00:56:05;;;;;;;8.38;5.80;;;;;;;;;;4991471;28;20030;-72
2022/11/19 00:58:34;;;;;;;7.97;5.72;;;;;;;;;;5006342;22;20018;-77
2022/11/19 01:01:00;;;;;;;12.00;6.07;;;;;;;;;;4991872;28;20031;-76
2022/11/19 01:03:28;;;;;;;7.57;6.72;;;;;;;;;;4960712;28;20073;-76
2022/11/19 01:05:59;;;;;;;6.53;5.93;;;;;;;;;;4952498;28;20023;-77
2022/11/19 01:08:27;;;;;;;8.48;6.05;;;;;;;;;;4976625;28;20033;-76
2022/11/19 01:11:02;;;;;;;6.38;5.47;;;;;;;;;;4971878;28;20027;-76
2022/11/19 01:13:34;;;;;;;7.75;4.85;;;;;;;;;;4991716;28;20484;-76
2022/11/19 01:16:06;;;;;;;9.57;5.20;;;;;;;;;;4964120;28;20062;-76
2022/11/19 01:18:32;;;;;;;7.65;5.15;;;;;;;;;;4976489;28;20488;-76
2022/11/19 01:20:58;;;;;;;11.35;6.20;;;;;;;;;;4989808;28;20041;-77
2022/11/19 01:23:27;;;;;;;8.57;5.70;;;;;;;;;;4980412;28;20031;-78
2022/11/19 01:25:55;;;;;;;11.60;5.45;;;;;;;;;;4997193;28;20026;-78
2022/11/19 01:28:21;;;;;;;5.82;5.18;;;;;;;;;;4958350;28;20166;-78
2022/11/19 01:30:51;;;;;;;9.30;6.35;;;;;;;;;;4972433;28;20098;-77
2022/11/19 01:33:18;;;;;;;8.10;6.03;;;;;;;;;;4984798;28;20037;-77
2022/11/19 01:35:53;;;;;;;11.65;6.43;;;;;;;;;;4982962;28;20026;-78
2022/11/19 01:38:19;;;;;;;11.00;5.88;;;;;;;;;;4992912;28;20385;-78
2022/11/19 01:40:45;;;;;;;12.20;5.85;;;;;;;;;;4955273;28;20034;-78
2022/11/19 01:43:13;;;;;;;8.73;6.80;;;;;;;;;;4986831;28;20029;-78
2022/11/19 01:45:44;;;;;;;8.15;5.43;;;;;;;;;;4973265;28;21764;-77
2022/11/19 01:48:16;;;;;;;8.40;6.03;;;;;;;;;;4964333;28;20039;-77
2022/11/19 01:50:46;;;;;;;9.68;8.02;;;;;;;;;;4992636;28;20042;-77
2022/11/19 01:53:12;;;;;;;12.73;8.50;;;;;;;;;;4997178;28;20038;-77
2022/11/19 01:55:39;;;;;;;8.75;6.43;;;;;;;;;;4994935;28;20145;-77
2022/11/19 01:58:13;;;;;;;8.70;7.45;;;;;;;;;;4992391;28;20030;-77
2022/11/19 02:00:42;;;;;;;10.88;6.97;;;;;;;;;;4990781;28;20026;-77
2022/11/19 02:03:12;;;;;;;9.63;7.57;;;;;;;;;;4959117;28;20039;-77
2022/11/19 02:05:40;;;;;;;9.82;8.10;;;;;;;;;;4963310;28;20034;-77
2022/11/19 02:08:09;;;;;;;10.27;6.82;;;;;;;;;;4973791;28;20053;-77
2022/11/19 02:10:50;;;;;;;9.75;6.38;;;;;;;;;;4939538;28;20501;-77
2022/11/19 02:13:31;;;;;;;8.27;6.20;;;;;;;;;;4994048;28;20038;-77
2022/11/19 02:16:13;;;;;;;9.77;6.38;;;;;;;;;;4982933;28;20071;-77
2022/11/19 02:18:42;;;;;;;12.73;8.98;;;;;;;;;;4988260;28;20034;-77
2022/11/19 02:21:33;;;;;;;12.20;8.57;;;;;;;;;;4975697;28;20035;-77
2022/11/19 02:24:09;;;;;;;10.80;7.07;;;;;;;;;;4990102;28;20030;-77
2022/11/19 02:26:56;;;;;;;8.95;7.45;;;;;;;;;;4979277;28;20030;-77
2022/11/19 02:29:28;;;;;;;8.32;7.25;;;;;;;;;;4971187;28;20030;-77
2022/11/19 02:32:08;;;;;;;7.78;6.40;;;;;;;;;;5001297;28;20049;-77
2022/11/19 02:34:42;;;;;;;7.65;5.68;;;;;;;;;;4988057;28;20022;-77
2022/11/19 02:37:29;;;;;;;9.77;8.05;;;;;;;;;;4964571;28;20031;-77
2022/11/19 02:40:07;;;;;;;9.40;7.57;;;;;;;;;;4991329;28;20442;-77
2022/11/19 02:42:46;;;;;;;12.00;6.90;;;;;;;;;;4970264;28;20412;-77
2022/11/19 02:45:30;;;;;;;10.35;6.60;;;;;;;;;;4986813;28;20042;-77
2022/11/19 02:48:04;;;;;;;7.97;6.95;;;;;;;;;;4993224;28;20026;-77
2022/11/19 02:50:30;;;;;;;9.40;6.78;;;;;;;;;;4990351;28;20045;-78
2022/11/19 02:52:56;;;;;;;13.52;9.07;;;;;;;;;;4974849;28;20105;-78
2022/11/19 02:55:22;;;;;;;9.75;7.65;;;;;;;;;;4973559;28;20038;-78
2022/11/19 02:58:07;;;;;;;11.38;6.53;;;;;;;;;;4991809;28;20027;-78
2022/11/19 03:06:31;;;;;;;9.38;6.25;;;;;;;;;;4991997;28;20034;-77
2022/11/19 03:08:57;;;;;;;10.23;7.57;;;;;;;;;;4993336;28;20033;-77
2022/11/19 03:11:25;;;;;;;10.48;6.80;;;;;;;;;;4991535;28;20034;-77
2022/11/19 03:16:46;;;;;;;8.70;6.20;;;;;;;;;;4988635;28;20035;-77
2022/11/19 03:19:22;;;;;;;11.52;6.68;;;;;;;;;;4960280;28;20037;-76
2022/11/19 03:21:50;;;;;;;6.97;4.97;;;;;;;;;;4991411;28;20026;-76
2022/11/19 03:24:30;;;;;;;24.05;6.78;;;;;;;;;;4988735;28;20370;-77
2022/11/19 03:27:05;;;;;;;8.60;6.53;;;;;;;;;;4974073;28;20400;-76
2022/11/19 03:29:35;;;;;;;12.45;7.30;;;;;;;;;;4967274;28;20033;-76
2022/11/19 03:32:04;;;;;;;6.15;4.57;;;;;;;;;;4982456;28;20038;-75
2022/11/19 03:34:32;;;;;;;9.57;5.68;;;;;;;;;;4965389;28;20033;-76
2022/11/19 03:37:00;;;;;;;8.10;5.88;;;;;;;;;;4991929;28;20042;-75
2022/11/19 03:39:26;;;;;;;5.78;5.18;;;;;;;;;;4990210;28;20530;-75
2022/11/19 03:41:55;;;;;;;7.75;5.35;;;;;;;;;;4997212;28;20049;-75
2022/11/19 03:44:24;;;;;;;10.52;7.15;;;;;;;;;;4972945;28;20038;-75
2022/11/19 03:46:55;;;;;;;9.10;6.32;;;;;;;;;;4989284;28;20504;-76
2022/11/19 03:49:26;;;;;;;9.98;5.90;;;;;;;;;;4998302;28;20057;-75
2022/11/19 03:52:01;;;;;;;8.00;7.18;;;;;;;;;;4989253;28;20030;-76
2022/11/19 03:54:27;;;;;;;9.35;7.38;;;;;;;;;;4972047;28;20057;-76
2022/11/19 03:56:58;;;;;;;11.57;7.28;;;;;;;;;;4989999;28;20030;-75
2022/11/19 03:59:25;;;;;;;10.75;7.82;;;;;;;;;;5001426;28;20037;-76
2022/11/19 04:01:55;;;;;;;11.35;7.10;;;;;;;;;;4972096;28;20035;-76
2022/11/19 04:04:36;;;;;;;12.30;7.32;;;;;;;;;;4994912;28;20625;-76
2022/11/19 04:07:15;;;;;;;8.63;7.38;;;;;;;;;;4994475;28;20045;-76
2022/11/19 04:09:44;;;;;;;10.77;7.05;;;;;;;;;;4994194;28;20034;-75
2022/11/19 04:12:20;;;;;;;9.45;8.07;;;;;;;;;;5004876;28;20030;-75
2022/11/19 04:14:46;;;;;;;10.60;7.32;;;;;;;;;;4995574;28;20026;-77
2022/11/19 04:17:12;;;;;;;12.48;9.88;;;;;;;;;;4997735;28;20052;-76
2022/11/19 04:19:40;;;;;;;13.07;9.07;;;;;;;;;;4976172;28;20531;-76
2022/11/19 04:22:06;;;;;;;12.45;8.55;;;;;;;;;;4992467;28;20030;-77
2022/11/19 04:24:34;;;;;;;8.32;7.53;;;;;;;;;;4981083;28;20038;-77
2022/11/19 04:27:00;;;;;;;9.68;7.60;;;;;;;;;;4989103;28;20496;-77
2022/11/19 04:29:29;;;;;;;9.70;7.43;;;;;;;;;;4979036;28;20088;-77
2022/11/19 04:31:54;;;;;;;12.10;7.13;;;;;;;;;;4997608;28;20034;-77
2022/11/19 04:34:20;;;;;;;9.80;7.55;;;;;;;;;;4960372;28;20034;-76
2022/11/19 04:36:50;;;;;;;8.52;6.88;;;;;;;;;;4997366;28;20042;-76
2022/11/19 04:39:18;;;;;;;12.68;8.23;;;;;;;;;;4979273;28;20043;-76
2022/11/19 04:41:47;;;;;;;14.80;7.85;;;;;;;;;;4979569;28;20038;-76
2022/11/19 04:44:13;;;;;;;11.13;8.00;;;;;;;;;;4998635;28;20021;-76
2022/11/19 04:46:41;;;;;;;15.57;9.40;;;;;;;;;;4996109;28;20065;-76
2022/11/19 04:49:07;;;;;;;8.63;6.68;;;;;;;;;;4983062;28;20026;-76
2022/11/19 04:51:32;;;;;;;11.70;6.68;;;;;;;;;;4977670;28;20045;-77
2022/11/19 04:54:01;;;;;;;8.63;7.43;;;;;;;;;;4995379;28;20404;-76
2022/11/19 04:56:29;;;;;;;14.65;8.60;;;;;;;;;;4995259;28;20034;-76
2022/11/19 04:58:57;;;;;;;9.98;7.10;;;;;;;;;;4979972;28;20372;-76
2022/11/19 05:01:26;;;;;;;10.88;9.63;;;;;;;;;;4996071;28;20037;-77
2022/11/19 05:03:59;;;;;;;10.27;8.93;;;;;;;;;;4981121;28;20030;-77
2022/11/19 05:06:29;;;;;;;12.43;7.75;;;;;;;;;;4995294;28;20041;-76
2022/11/19 05:08:55;;;;;;;9.65;7.53;;;;;;;;;;4992237;28;20030;-76
2022/11/19 05:11:23;;;;;;;12.32;8.18;;;;;;;;;;4986255;28;20033;-77
2022/11/19 05:13:49;;;;;;;9.30;7.70;;;;;;;;;;4991381;28;20049;-77
2022/11/19 05:16:17;;;;;;;10.57;7.88;;;;;;;;;;4975069;28;20034;-78
2022/11/19 05:18:43;;;;;;;9.63;7.57;;;;;;;;;;4994280;28;20037;-77
2022/11/19 05:21:09;;;;;;;10.43;9.05;;;;;;;;;;4997387;28;20029;-77
2022/11/19 05:23:38;;;;;;;13.10;9.30;;;;;;;;;;4973142;28;20427;-77
2022/11/19 05:26:04;;;;;;;14.20;8.93;;;;;;;;;;4990604;28;20476;-78
2022/11/19 05:28:31;;;;;;;10.98;7.53;;;;;;;;;;4961046;28;20038;-78
2022/11/19 05:31:02;;;;;;;10.43;7.68;;;;;;;;;;4993083;28;20037;-77
2022/11/19 05:33:28;;;;;;;9.88;7.32;;;;;;;;;;4975672;28;20026;-78
2022/11/19 05:35:56;;;;;;;9.43;6.93;;;;;;;;;;4995842;28;20027;-78
2022/11/19 05:38:22;;;;;;;14.93;8.57;;;;;;;;;;4992018;28;20026;-78
2022/11/19 05:40:48;;;;;;;17.48;7.88;;;;;;;;;;4978452;28;20093;-77
2022/11/19 05:43:16;;;;;;;12.20;7.85;;;;;;;;;;4997982;28;20034;-76
2022/11/19 05:45:42;;;;;;;9.90;6.03;;;;;;;;;;4990874;28;20030;-77
2022/11/19 05:48:08;;;;;;;11.75;7.88;;;;;;;;;;4976989;28;20037;-77
2022/11/19 05:50:34;;;;;;;11.18;8.50;;;;;;;;;;4983826;28;20034;-81
2022/11/19 05:53:01;;;;;;;15.52;9.05;;;;;;;;;;4978454;28;20026;-83
2022/11/19 05:55:29;;;;;;;17.80;10.05;;;;;;;;;;4991839;28;20033;-82
2022/11/19 05:57:55;;;;;;;9.32;6.68;;;;;;;;;;4993754;28;20026;-83
2022/11/19 06:00:21;;;;;;;6.20;4.45;;;;;;;;;;4958686;28;20052;-83
2022/11/19 06:02:49;;;;;;;3.20;2.90;;;;;;;;;;4986617;28;20038;-82
2022/11/19 06:05:17;;;;;;;7.03;2.63;;;;;;;;;;4991714;28;20026;-83
2022/11/19 06:07:45;;;;;;;3.67;3.35;;;;;;;;;;4992513;28;20041;-82
2022/11/19 06:10:11;;;;;;;8.55;5.82;;;;;;;;;;4998082;28;20440;-82
2022/11/19 06:12:39;;;;;;;6.20;3.97;;;;;;;;;;4974262;28;20057;-82
2022/11/19 06:15:05;;;;;;;5.03;4.20;;;;;;;;;;4971760;28;20026;-82
2022/11/19 06:17:32;;;;;;;4.18;3.08;;;;;;;;;;4977162;28;20026;-82
2022/11/19 06:20:02;;;;;;;5.60;4.32;;;;;;;;;;4973323;28;20033;-82
2022/11/19 06:22:28;;;;;;;7.35;4.85;;;;;;;;;;4960788;28;20397;-82
2022/11/19 06:24:54;;;;;;;6.53;4.40;;;;;;;;;;4955009;28;20052;-83
2022/11/19 06:27:22;;;;;;;4.30;2.88;;;;;;;;;;4962866;28;20038;-82
2022/11/19 06:29:50;;;;;;;5.47;4.57;;;;;;;;;;4987029;28;20046;-83
2022/11/19 06:32:16;;;;;;;3.35;3.05;;;;;;;;;;4986284;28;20034;-81
2022/11/19 06:34:44;;;;;;;9.75;8.73;;;;;;;;;;4972524;28;20392;-83
2022/11/19 06:37:13;;;;;;;5.38;3.45;;;;;;;;;;4966830;28;20027;-83
2022/11/19 06:39:38;;;;;;;15.75;9.45;;;;;;;;;;4982596;28;20374;-83
2022/11/19 06:44:53;;;;;;;4.80;3.65;;;;;;;;;;4991385;28;20033;-84
2022/11/19 06:47:22;;;;;;;4.28;3.28;;;;;;;;;;4964524;28;20035;-83
2022/11/19 06:49:48;;;;;;;6.10;5.50;;;;;;;;;;4983435;28;20034;-83
2022/11/19 06:52:13;;;;;;;9.30;6.38;;;;;;;;;;4987102;28;20030;-84
2022/11/19 06:54:39;;;;;;;8.35;6.90;;;;;;;;;;4989128;28;20632;-83
2022/11/19 06:57:07;;;;;;;8.82;6.82;;;;;;;;;;4990824;28;20027;-83
2022/11/19 06:59:34;;;;;;;6.60;4.63;;;;;;;;;;4981081;28;20042;-84
2022/11/19 07:02:02;;;;;;;6.50;5.25;;;;;;;;;;4987922;28;20026;-84
2022/11/19 07:04:32;;;;;;;6.28;4.65;;;;;;;;;;4990139;28;20030;-85
2022/11/19 07:06:58;;;;;;;6.75;4.82;;;;;;;;;;4974000;28;20027;-84
2022/11/19 07:09:26;;;;;;;5.68;4.80;;;;;;;;;;4980424;28;20042;-85
2022/11/19 07:11:57;;;;;;;5.85;4.55;;;;;;;;;;5002874;28;20046;-84
2022/11/19 07:14:23;;;;;;;3.80;3.50;;;;;;;;;;4964665;28;20042;-85
2022/11/19 07:16:51;;;;;;;5.00;4.35;;;;;;;;;;5015130;28;20012;-84
2022/11/19 07:19:21;;;;;;;17.48;4.55;;;;;;;;;;4997630;28;20033;-85
2022/11/19 07:21:47;;;;;;;5.80;3.88;;;;;;;;;;4992052;28;20030;-84
2022/11/19 07:24:18;;;;;;;4.30;3.88;;;;;;;;;;4982627;28;20031;-83
2022/11/19 07:26:43;;;;;;;8.45;5.20;;;;;;;;;;4992588;28;20027;-85
2022/11/19 07:29:11;;;;;;;6.80;4.65;;;;;;;;;;4967688;28;20140;-84
2022/11/19 07:31:39;;;;;;;4.05;3.22;;;;;;;;;;5001642;28;20022;-84
2022/11/19 07:34:06;;;;;;;5.82;3.85;;;;;;;;;;4976574;28;20041;-85
2022/11/19 07:36:31;;;;;;;4.95;4.10;;;;;;;;;;4972860;28;20029;-83
2022/11/19 07:38:57;;;;;;;6.13;3.45;;;;;;;;;;4988835;28;20034;-82
2022/11/19 07:44:08;;;;;;;5.05;4.00;;;;;;;;;;4989066;28;20026;-84
2022/11/19 07:46:34;;;;;;;6.63;4.47;;;;;;;;;;4985080;28;20022;-84
2022/11/19 07:49:00;;;;;;;6.18;4.43;;;;;;;;;;4986181;28;20045;-84
2022/11/19 07:51:28;;;;;;;7.45;4.47;;;;;;;;;;4989092;28;20095;-84
2022/11/19 07:53:54;;;;;;;6.43;5.13;;;;;;;;;;4956453;28;20046;-84
2022/11/19 07:56:25;;;;;;;7.03;6.28;;;;;;;;;;4969219;28;20042;-84
2022/11/19 07:58:51;;;;;;;7.18;5.38;;;;;;;;;;4968302;28;20030;-84
2022/11/19 08:01:21;;;;;;;8.60;6.15;;;;;;;;;;4972725;28;20085;-84
2022/11/19 08:03:52;;;;;;;7.72;5.25;;;;;;;;;;4973511;28;20412;-84
2022/11/19 08:06:22;;;;;;;7.00;6.00;;;;;;;;;;4973335;28;20042;-84
2022/11/19 08:08:50;;;;;;;6.45;4.63;;;;;;;;;;4990068;28;20054;-84
2022/11/19 08:11:16;;;;;;;8.38;5.18;;;;;;;;;;4991599;28;20480;-85
2022/11/19 08:13:45;;;;;;;6.95;5.97;;;;;;;;;;4979596;28;20041;-85
2022/11/19 08:16:12;;;;;;;6.43;4.60;;;;;;;;;;4971791;28;20882;-87
2022/11/19 08:18:43;;;;;;;9.55;6.05;;;;;;;;;;4990129;28;20037;-85
2022/11/19 08:21:09;;;;;;;6.97;6.07;;;;;;;;;;4989378;28;20389;-85
2022/11/19 08:23:40;;;;;;;5.65;4.80;;;;;;;;;;4991957;28;20485;-85
2022/11/19 08:26:09;;;;;;;8.73;5.72;;;;;;;;;;4986775;28;20026;-86
2022/11/19 08:28:37;;;;;;;8.48;6.60;;;;;;;;;;4957299;28;20389;-85
2022/11/19 08:31:07;;;;;;;6.30;5.13;;;;;;;;;;4991900;28;20039;-85
2022/11/19 08:33:37;;;;;;;5.55;4.50;;;;;;;;;;4969253;28;20535;-85
2022/11/19 08:36:04;;;;;;;6.45;4.53;;;;;;;;;;4988208;28;20508;-85
2022/11/19 08:38:32;;;;;;;6.72;5.18;;;;;;;;;;4962911;28;20034;-85
2022/11/19 08:43:42;;;;;;;9.65;6.55;;;;;;;;;;4988207;28;20045;-86
2022/11/19 08:46:10;;;;;;;14.85;6.68;;;;;;;;;;4993211;28;20033;-86
2022/11/19 08:48:41;;;;;;;9.18;6.68;;;;;;;;;;4988104;28;20412;-86
2022/11/19 08:51:08;;;;;;;8.07;5.85;;;;;;;;;;4984406;28;20046;-86
2022/11/19 08:53:37;;;;;;;10.75;8.13;;;;;;;;;;4952218;28;20034;-86
2022/11/19 08:56:05;;;;;;;6.55;5.35;;;;;;;;;;4966970;28;20101;-86
2022/11/19 08:58:31;;;;;;;9.95;7.45;;;;;;;;;;4990026;28;20481;-85
2022/11/19 09:01:06;;;;;;;7.53;4.60;;;;;;;;;;4972957;28;20321;-86
2022/11/19 09:03:32;;;;;;;7.22;5.80;;;;;;;;;;4977339;28;20038;-85
2022/11/19 09:05:58;;;;;;;6.63;4.07;;;;;;;;;;4973869;28;20391;-85
2022/11/19 09:08:27;;;;;;;7.53;4.68;;;;;;;;;;4969433;28;20046;-85
2022/11/19 09:10:53;;;;;;;8.10;5.43;;;;;;;;;;4991017;28;20027;-85
2022/11/19 09:13:18;;;;;;;7.53;5.50;;;;;;;;;;4988293;28;20034;-85
2022/11/19 09:15:47;;;;;;;8.80;6.72;;;;;;;;;;4991803;28;20093;-85
2022/11/19 09:18:13;;;;;;;9.13;6.18;;;;;;;;;;4993075;28;20346;-85
2022/11/19 09:20:41;;;;;;;12.18;7.10;;;;;;;;;;4978274;28;20404;-85
2022/11/19 09:23:10;;;;;;;9.88;6.57;;;;;;;;;;4959331;28;20034;-88
2022/11/19 09:25:35;;;;;;;13.57;10.77;;;;;;;;;;4974847;28;20038;-88
2022/11/19 09:28:01;;;;;;;7.95;6.47;;;;;;;;;;4976635;28;20097;-88
2022/11/19 09:30:29;;;;;;;9.90;6.57;;;;;;;;;;4953648;28;20046;-88
2022/11/19 09:32:58;;;;;;;8.43;7.07;;;;;;;;;;4987916;28;20027;-89
2022/11/19 09:35:24;;;;;;;9.90;9.00;;;;;;;;;;4971417;28;20034;-89
2022/11/19 09:37:50;;;;;;;12.05;8.38;;;;;;;;;;4952066;28;20041;-89
2022/11/19 09:40:19;;;;;;;12.20;7.38;;;;;;;;;;4971885;28;20030;-89
2022/11/19 09:43:07;;;;;;;12.13;9.25;;;;;;;;;;4954210;28;20034;-88
2022/11/19 09:45:38;;;;;;;7.63;6.07;;;;;;;;;;4969629;28;20038;-89
2022/11/19 09:48:04;;;;;;;8.75;6.07;;;;;;;;;;4965100;28;20842;-89
2022/11/19 09:50:33;;;;;;;11.10;6.35;;;;;;;;;;4984944;28;20062;-89
2022/11/19 09:52:59;;;;;;;8.43;6.55;;;;;;;;;;4984219;28;20030;-89
2022/11/19 09:55:33;;;;;;;7.68;6.88;;;;;;;;;;4983890;28;20663;-89
2022/11/19 09:58:03;;;;;;;8.85;6.22;;;;;;;;;;4965911;28;20038;-89
2022/11/19 10:00:33;;;;;;;7.20;6.50;;;;;;;;;;4994206;28;20472;-88
2022/11/19 10:03:01;;;;;;;6.55;5.28;;;;;;;;;;4957117;28;20033;-88
2022/11/19 10:05:33;;;;;;;13.77;7.00;;;;;;;;;;4979917;28;20031;-86
2022/11/19 10:08:14;;;;;;;7.43;6.18;;;;;;;;;;4957900;28;20049;-88
2022/11/19 11:34:06;;;;;;;4.18;2.95;;;;;;;;;;5054989;23;20039;-96
2022/11/19 11:36:34;;;;;;;6.00;4.57;;;;;;;;;;4975886;28;20029;-95
2022/11/19 11:39:02;;;;;;;6.70;4.63;;;;;;;;;;4947981;28;20061;-95
2022/11/19 11:41:32;;;;;;;5.53;4.97;;;;;;;;;;4967123;28;20035;-96
2022/11/19 11:44:00;;;;;;;6.53;4.47;;;;;;;;;;4947915;28;20041;-96
2022/11/19 11:46:50;;;;;;;6.65;4.47;;;;;;;;;;4956498;28;20025;-96
2022/11/19 11:49:19;;;;;;;4.78;3.50;;;;;;;;;;4977204;28;20050;-96
2022/11/19 11:51:54;;;;;;;9.40;5.85;;;;;;;;;;4973441;28;20033;-96
2022/11/19 11:54:20;;;;;;;7.40;6.57;;;;;;;;;;4969162;28;20042;-96
2022/11/19 11:56:47;;;;;;;9.50;7.28;;;;;;;;;;4974905;28;20067;-96
2022/11/19 11:59:19;;;;;;;7.07;5.25;;;;;;;;;;4962989;28;20031;-96
2022/11/19 12:01:55;;;;;;;6.25;3.17;;;;;;;;;;4969122;28;20060;-93
2022/11/19 12:04:22;;;;;;;3.58;2.83;;;;;;;;;;4948464;28;20038;-96
2022/11/19 12:07:14;;;;;;;3.45;2.55;;;;;;;;;;4966837;28;20028;-96
2022/11/19 12:09:49;;;;;;;4.65;3.45;;;;;;;;;;4970849;28;20046;-94
2022/11/19 12:12:30;;;;;;;2.70;2.25;;;;;;;;;;4982014;28;20046;-96
2022/11/19 12:15:10;;;;;;;4.00;3.20;;;;;;;;;;4997644;28;20053;-96
2022/11/19 12:17:55;;;;;;;3.05;2.55;;;;;;;;;;4985134;28;20042;-96
2022/11/19 12:20:47;;;;;;;5.45;3.33;;;;;;;;;;4983973;28;20061;-95
2022/11/19 12:23:17;;;;;;;3.60;3.30;;;;;;;;;;4932306;28;20031;-95
2022/11/19 12:25:52;;;;;;;7.88;3.17;;;;;;;;;;4954960;28;20034;-95
2022/11/19 12:28:30;;;;;;;2.13;2.03;;;;;;;;;;4995714;28;20038;-96
2022/11/19 12:34:02;;;;;;;3.63;2.58;;;;;;;;;;4376887;26;20037;-84
2022/11/19 12:37:10;;;;;;;2.40;2.20;;;;;;;;;;5032388;28;20024;-89
2022/11/19 12:40:16;;;;;;;4.38;2.90;;;;;;;;;;4920641;28;20620;-84
2022/11/19 12:42:45;;;;;;;4.32;2.55;;;;;;;;;;4965094;28;20053;-85
2022/11/19 12:45:19;;;;;;;6.40;3.80;;;;;;;;;;5008204;28;20616;-85
2022/11/19 12:48:02;;;;;;;5.18;3.25;;;;;;;;;;4993551;28;20032;-83
2022/11/19 12:50:30;;;;;;;4.28;3.33;;;;;;;;;;5030193;28;20388;-86
2022/11/19 12:52:59;;;;;;;4.47;3.10;;;;;;;;;;5012607;28;20055;-86
2022/11/19 12:55:25;;;;;;;3.70;3.25;;;;;;;;;;5014058;28;20026;-86
2022/11/19 12:57:51;;;;;;;6.10;4.60;;;;;;;;;;5034579;28;20022;-84
2022/11/19 13:00:18;;;;;;;13.18;9.27;;;;;;;;;;5004468;23;20046;-74
2022/11/19 13:02:44;;;;;;;11.85;8.88;;;;;;;;;;4989216;28;20027;-74
2022/11/19 13:05:40;;;;;;;5.82;5.28;;;;;;;;;;4967582;28;20373;-73
2022/11/19 13:08:26;;;;;;;10.85;5.78;;;;;;;;;;4980985;28;20133;-75
2022/11/19 13:11:06;;;;;;;7.57;6.03;;;;;;;;;;4971712;28;20855;-74
2022/11/19 13:13:34;;;;;;;6.15;5.53;;;;;;;;;;4954319;28;20046;-74
2022/11/19 13:16:08;;;;;;;7.38;6.72;;;;;;;;;;4970865;28;20026;-74
2022/11/19 13:18:37;;;;;;;7.95;4.82;;;;;;;;;;4973977;28;20027;-74
2022/11/19 13:21:25;;;;;;;7.43;6.50;;;;;;;;;;4970986;28;20014;-73
2022/11/19 13:23:56;;;;;;;9.02;7.70;;;;;;;;;;4971158;28;20374;-73
2022/11/19 13:26:25;;;;;;;6.15;5.60;;;;;;;;;;4968038;28;20043;-74
2022/11/19 13:29:02;;;;;;;6.88;5.60;;;;;;;;;;4969879;28;20042;-74
2022/11/19 13:31:40;;;;;;;6.05;5.43;;;;;;;;;;4974511;28;20508;-74
2022/11/19 13:34:17;;;;;;;6.22;5.28;;;;;;;;;;4971049;28;20481;-74
2022/11/19 13:36:57;;;;;;;7.05;5.68;;;;;;;;;;4970794;28;20043;-75
2022/11/19 13:39:33;;;;;;;7.75;4.88;;;;;;;;;;4970451;28;20027;-75
2022/11/19 13:44:47;;;;;;;8.13;4.82;;;;;;;;;;4972842;28;20041;-75
2022/11/19 13:47:39;;;;;;;5.82;4.30;;;;;;;;;;4972024;28;20045;-75
2022/11/19 13:50:30;;;;;;;6.88;4.85;;;;;;;;;;4970704;28;20042;-74
2022/11/19 13:53:11;;;;;;;7.40;5.60;;;;;;;;;;4967422;28;20045;-75
2022/11/19 13:55:39;;;;;;;8.35;5.57;;;;;;;;;;4957450;28;20031;-75
2022/11/19 13:58:06;;;;;;;7.00;6.00;;;;;;;;;;4972076;28;20035;-75
2022/11/19 14:00:33;;;;;;;9.82;6.22;;;;;;;;;;4970711;28;20058;-75
2022/11/19 14:03:13;;;;;;;9.25;7.57;;;;;;;;;;4971354;28;20038;-75
2022/11/19 14:05:39;;;;;;;5.97;4.25;;;;;;;;;;4963405;28;20027;-74
2022/11/19 14:08:10;;;;;;;7.35;5.53;;;;;;;;;;4976834;28;20396;-75
2022/11/19 14:10:55;;;;;;;6.03;5.35;;;;;;;;;;4965562;28;20031;-74
2022/11/19 14:13:23;;;;;;;6.32;4.55;;;;;;;;;;4969621;28;20039;-74
2022/11/19 14:27:25;;;;;;;5.38;4.38;;;;;;;;;;4973341;28;20042;-74
2022/11/19 14:30:08;;;;;;;6.82;5.85;;;;;;;;;;4984702;28;20049;-74
2022/11/19 14:32:34;;;;;;;8.63;4.75;;;;;;;;;;4949055;28;20049;-74
2022/11/19 14:35:00;;;;;;;5.93;5.32;;;;;;;;;;4972167;28;20034;-74
2022/11/19 14:37:25;;;;;;;5.45;4.95;;;;;;;;;;4972625;28;20099;-74
2022/11/19 14:40:10;;;;;;;8.23;5.80;;;;;;;;;;4971378;28;20026;-74
2022/11/19 14:44:07;;;;;;;7.90;4.93;;;;;;;;;;4972048;28;20042;-74
2022/11/19 14:46:02;;;;;;;6.35;5.45;;;;;;;;;;4969750;28;20027;-74
2022/11/19 14:48:29;;;;;;;6.65;5.68;;;;;;;;;;4967832;28;20649;-74
2022/11/19 14:51:11;;;;;;;6.78;5.00;;;;;;;;;;4966281;28;20035;-74
2022/11/19 14:53:47;;;;;;;6.95;6.35;;;;;;;;;;4971041;28;20561;-74
2022/11/19 14:56:18;;;;;;;6.40;5.22;;;;;;;;;;4975254;28;20057;-75
2022/11/19 14:59:02;;;;;;;7.93;6.13;;;;;;;;;;4970303;28;20031;-74
2022/11/19 15:01:30;;;;;;;9.68;7.38;;;;;;;;;;4967713;28;20042;-74
2022/11/19 15:04:00;;;;;;;5.88;4.38;;;;;;;;;;4969647;28;20026;-74
2022/11/19 15:06:26;;;;;;;5.72;4.80;;;;;;;;;;4968744;28;20453;-74
2022/11/19 15:08:56;;;;;;;8.23;4.65;;;;;;;;;;4969962;28;20031;-74
2022/11/19 15:11:22;;;;;;;4.63;4.05;;;;;;;;;;4968248;28;20041;-74
2022/11/19 15:14:08;;;;;;;4.00;2.90;;;;;;;;;;4993507;28;20034;-74
2022/11/19 15:16:34;;;;;;;4.28;3.72;;;;;;;;;;4962890;28;20046;-75
2022/11/19 15:19:17;;;;;;;9.65;5.50;;;;;;;;;;4981796;28;20026;-75
2022/11/19 15:21:54;;;;;;;6.18;5.57;;;;;;;;;;4971440;28;20033;-74
2022/11/19 15:24:52;;;;;;;6.68;5.28;;;;;;;;;;4972479;28;20045;-74
2022/11/19 15:27:31;;;;;;;7.40;5.68;;;;;;;;;;4957755;28;20046;-75
2022/11/19 15:30:06;;;;;;;5.95;5.35;;;;;;;;;;4971549;28;20493;-75
2022/11/19 15:32:40;;;;;;;5.15;4.57;;;;;;;;;;4973022;28;20039;-74
2022/11/19 15:35:25;;;;;;;7.35;5.68;;;;;;;;;;5002046;28;20039;-74
2022/11/19 15:37:51;;;;;;;5.85;4.25;;;;;;;;;;4964257;28;20031;-74
2022/11/19 15:40:20;;;;;;;11.40;7.03;;;;;;;;;;4964112;28;20035;-74
2022/11/19 15:42:55;;;;;;;7.25;5.97;;;;;;;;;;4967481;28;20019;-74
2022/11/19 15:45:23;;;;;;;6.32;5.70;;;;;;;;;;4966353;28;20034;-74
2022/11/19 15:47:51;;;;;;;10.25;7.97;;;;;;;;;;4954651;28;20039;-75
2022/11/19 15:50:23;;;;;;;5.75;4.00;;;;;;;;;;4968468;28;20111;-75
2022/11/19 15:52:56;;;;;;;6.07;4.80;;;;;;;;;;4970920;28;20038;-75
2022/11/19 15:55:24;;;;;;;5.45;3.80;;;;;;;;;;4969279;28;20034;-75
2022/11/19 15:57:52;;;;;;;7.30;5.82;;;;;;;;;;4977533;28;20030;-75
2022/11/19 16:00:18;;;;;;;5.85;3.78;;;;;;;;;;4973756;28;20039;-75
2022/11/19 16:02:46;;;;;;;6.43;4.60;;;;;;;;;;4964371;28;20022;-75
2022/11/19 16:05:18;;;;;;;4.70;3.97;;;;;;;;;;4962133;28;20034;-75
2022/11/19 16:07:44;;;;;;;6.03;5.20;;;;;;;;;;4966817;28;20038;-75
2022/11/19 16:10:14;;;;;;;6.88;4.95;;;;;;;;;;4967129;28;20038;-75
2022/11/19 16:18:30;;;;;;;4.30;3.67;;;;;;;;;;4974164;28;20045;-75
2022/11/19 16:20:58;;;;;;;5.63;4.57;;;;;;;;;;4965349;28;20027;-74
2022/11/19 16:23:25;;;;;;;7.20;6.50;;;;;;;;;;4968542;28;20031;-74
2022/11/19 16:25:51;;;;;;;7.85;5.18;;;;;;;;;;4967872;28;20670;-74
2022/11/19 16:28:21;;;;;;;9.05;5.63;;;;;;;;;;4968767;28;20031;-74
2022/11/19 16:30:51;;;;;;;8.68;6.15;;;;;;;;;;4964300;28;20046;-75
2022/11/19 16:33:22;;;;;;;8.32;7.45;;;;;;;;;;4968575;28;20045;-74
2022/11/19 16:35:48;;;;;;;8.57;6.57;;;;;;;;;;4952135;28;20038;-75
2022/11/19 16:38:27;;;;;;;8.57;6.88;;;;;;;;;;4960303;28;20031;-75
2022/11/19 16:43:41;;;;;;;5.88;5.15;;;;;;;;;;4968439;28;20026;-75
2022/11/19 16:46:07;;;;;;;7.72;6.82;;;;;;;;;;4969610;28;20026;-74
2022/11/19 16:48:35;;;;;;;8.32;6.63;;;;;;;;;;4964808;28;20496;-75
2022/11/19 16:51:23;;;;;;;9.48;6.60;;;;;;;;;;4975593;28;20481;-75
2022/11/19 16:53:51;;;;;;;8.60;6.07;;;;;;;;;;4970023;28;20452;-75
2022/11/19 16:56:17;;;;;;;9.68;7.82;;;;;;;;;;4968572;28;20042;-75
2022/11/19 16:58:44;;;;;;;7.25;6.38;;;;;;;;;;4961880;28;20042;-74
2022/11/19 17:01:10;;;;;;;7.70;7.00;;;;;;;;;;4963249;28;20027;-75
2022/11/19 17:03:39;;;;;;;8.48;7.13;;;;;;;;;;4966517;28;20031;-75
2022/11/19 17:06:16;;;;;;;11.13;8.23;;;;;;;;;;4984175;28;20037;-75
2022/11/19 17:08:54;;;;;;;8.68;7.22;;;;;;;;;;4968025;28;20039;-75
2022/11/19 17:14:17;;;;;;;9.77;7.63;;;;;;;;;;4967986;28;20397;-75